Time;durP1;ratioP1;P1;durP2;ratioP2;P2;SDS_P1;SDS_P2;PMS_P1;PMS_P2;Temp;Humidity;BMP_temperature;BMP_pressure;BME280_temperature;BME280_humidity;BME280_pressure;Samples;Min_cycle;Max_cycle;Signal;HPM_P1;HPM_P2
2022/10/14 00:00:41;;;;;;;;;;;19.90;71.30;;;;;;4477705;32;20017;-79
2022/10/14 00:03:06;;;;;;;;;;;19.90;71.30;;;;;;4477590;32;19969;-79
2022/10/14 00:05:32;;;;;;;;;;;19.90;71.30;;;;;;4477335;32;20001;-79
2022/10/14 00:07:58;;;;;;;;;;;19.90;71.30;;;;;;4477016;32;19980;-79
2022/10/14 00:10:23;;;;;;;;;;;19.90;71.30;;;;;;4477335;32;20074;-79
2022/10/14 00:12:49;;;;;;;;;;;19.90;71.40;;;;;;4477462;32;20311;-79
2022/10/14 00:15:15;;;;;;;;;;;19.90;71.30;;;;;;4477655;32;20092;-79
2022/10/14 00:17:41;;;;;;;;;;;19.90;71.30;;;;;;4477484;32;19984;-79
2022/10/14 00:20:07;;;;;;;;;;;19.90;71.30;;;;;;4477607;32;19965;-79
2022/10/14 00:22:33;;;;;;;;;;;19.80;71.20;;;;;;4463002;32;20060;-79
2022/10/14 00:24:59;;;;;;;;;;;19.80;71.30;;;;;;4477341;32;20108;-79
2022/10/14 00:27:24;;;;;;;;;;;19.80;71.20;;;;;;4462857;32;20152;-79
2022/10/14 00:29:51;;;;;;;;;;;19.90;71.30;;;;;;4477041;32;19978;-79
2022/10/14 00:32:17;;;;;;;;;;;19.80;71.20;;;;;;4477197;32;19966;-79
2022/10/14 00:34:42;;;;;;;;;;;19.80;71.20;;;;;;4476851;32;20359;-79
2022/10/14 00:37:08;;;;;;;;;;;19.80;71.30;;;;;;4476983;32;19980;-79
2022/10/14 00:39:34;;;;;;;;;;;19.80;71.20;;;;;;4477346;32;20017;-79
2022/10/14 00:42:00;;;;;;;;;;;19.80;71.20;;;;;;4477095;32;19978;-79
2022/10/14 00:44:25;;;;;;;;;;;19.80;71.10;;;;;;4476799;32;20319;-79
2022/10/14 00:46:51;;;;;;;;;;;19.80;71.20;;;;;;4476798;32;20028;-79
2022/10/14 00:49:17;;;;;;;;;;;19.80;71.20;;;;;;4477145;32;19962;-79
2022/10/14 00:51:45;;;;;;;;;;;19.80;71.20;;;;;;4477102;32;19982;-79
2022/10/14 00:54:12;;;;;;;;;;;19.80;71.20;;;;;;4477015;32;19989;-79
2022/10/14 00:56:38;;;;;;;;;;;19.80;71.20;;;;;;4477200;32;20059;-79
2022/10/14 00:59:05;;;;;;;;;;;19.80;72.00;;;;;;4476919;32;20324;-79
2022/10/14 01:01:31;;;;;;;;;;;19.80;71.20;;;;;;4476957;32;20323;-79
2022/10/14 01:03:56;;;;;;;;;;;19.70;71.10;;;;;;4476908;32;19973;-79
2022/10/14 01:06:22;;;;;;;;;;;19.80;71.20;;;;;;4476878;32;20010;-79
2022/10/14 01:08:54;;;;;;;;;;;19.80;71.20;;;;;;4476730;32;20033;-79
2022/10/14 01:11:39;;;;;;;;;;;19.70;71.10;;;;;;4476987;32;19974;-79
2022/10/14 01:14:14;;;;;;;;;;;19.70;71.10;;;;;;4476768;32;20292;-79
2022/10/14 01:16:56;;;;;;;;;;;19.70;71.10;;;;;;4476890;32;19973;-79
2022/10/14 01:19:43;;;;;;;;;;;19.70;71.10;;;;;;4477125;32;20164;-79
2022/10/14 01:22:16;;;;;;;;;;;19.70;71.10;;;;;;4479778;32;19988;-78
2022/10/14 01:24:54;;;;;;;;;;;19.70;71.10;;;;;;4479783;32;19981;-79
2022/10/14 01:27:19;;;;;;;;;;;19.70;71.10;;;;;;4480019;32;20410;-79
2022/10/14 01:29:45;;;;;;;;;;;19.70;71.00;;;;;;4480107;32;19970;-79
2022/10/14 01:32:14;;;;;;;;;;;19.70;71.10;;;;;;4479858;32;19985;-79
2022/10/14 01:34:43;;;;;;;;;;;19.70;71.10;;;;;;4479844;32;20405;-79
2022/10/14 01:37:12;;;;;;;;;;;19.70;71.00;;;;;;4479940;32;19974;-79
2022/10/14 01:39:41;;;;;;;;;;;19.70;71.00;;;;;;4479756;32;19993;-79
2022/10/14 01:42:10;;;;;;;;;;;19.70;71.00;;;;;;4479711;32;20021;-79
2022/10/14 01:44:37;;;;;;;;;;;19.70;71.00;;;;;;4479435;32;19974;-79
2022/10/14 01:47:04;;;;;;;;;;;19.70;71.00;;;;;;4479454;32;20061;-78
2022/10/14 01:49:30;;;;;;;;;;;19.70;71.00;;;;;;4479972;32;20376;-79
2022/10/14 01:52:15;;;;;;;;;;;19.70;70.90;;;;;;4479457;32;19982;-79
2022/10/14 01:54:42;;;;;;;;;;;19.60;70.90;;;;;;4479424;32;19981;-79
2022/10/14 01:57:10;;;;;;;;;;;19.60;70.90;;;;;;4479556;32;20103;-79
2022/10/14 01:59:37;;;;;;;;;;;19.60;70.90;;;;;;4479496;32;20403;-79
2022/10/14 02:02:03;;;;;;;;;;;19.60;70.80;;;;;;4479407;32;20495;-78
2022/10/14 02:04:29;;;;;;;;;;;19.60;70.80;;;;;;4479379;32;20475;-79
2022/10/14 02:06:57;;;;;;;;;;;19.60;70.80;;;;;;4479245;32;20000;-79
2022/10/14 02:09:46;;;;;;;;;;;19.60;70.90;;;;;;4479116;32;20026;-79
2022/10/14 02:12:18;;;;;;;;;;;19.60;70.90;;;;;;4465291;32;19978;-79
2022/10/14 02:14:55;;;;;;;;;;;19.60;70.90;;;;;;4479333;32;20474;-79
2022/10/14 02:17:21;;;;;;;;;;;19.60;70.90;;;;;;4479496;32;19982;-79
2022/10/14 02:19:54;;;;;;;;;;;19.60;70.90;;;;;;4464890;32;20371;-78
2022/10/14 02:22:29;;;;;;;;;;;19.60;70.80;;;;;;4464962;32;19974;-79
2022/10/14 02:24:58;;;;;;;;;;;19.60;70.90;;;;;;4478996;32;19980;-79
2022/10/14 02:27:25;;;;;;;;;;;19.60;70.90;;;;;;4479210;32;20532;-78
2022/10/14 02:29:52;;;;;;;;;;;19.60;70.90;;;;;;4478711;32;19990;-79
2022/10/14 02:32:19;;;;;;;;;;;19.50;70.80;;;;;;4478305;32;20016;-79
2022/10/14 02:34:47;;;;;;;;;;;19.50;70.80;;;;;;4478805;32;20045;-79
2022/10/14 02:37:14;;;;;;;;;;;19.60;70.80;;;;;;4478935;32;19982;-79
2022/10/14 02:39:42;;;;;;;;;;;19.60;70.80;;;;;;4478945;32;20062;-79
2022/10/14 02:42:08;;;;;;;;;;;19.60;70.90;;;;;;4478928;32;19978;-79
2022/10/14 02:44:34;;;;;;;;;;;19.50;70.80;;;;;;4479099;32;20013;-79
2022/10/14 02:47:00;;;;;;;;;;;19.50;70.80;;;;;;4479095;32;20023;-79
2022/10/14 02:49:25;;;;;;;;;;;19.50;70.80;;;;;;4479012;32;19962;-79
2022/10/14 02:51:51;;;;;;;;;;;19.50;70.80;;;;;;4478948;32;19974;-79
2022/10/14 02:54:17;;;;;;;;;;;19.50;70.80;;;;;;4479213;32;19970;-79
2022/10/14 02:56:42;;;;;;;;;;;19.50;70.70;;;;;;4478625;32;19997;-79
2022/10/14 02:59:08;;;;;;;;;;;19.50;70.70;;;;;;4478748;32;19970;-79
2022/10/14 03:01:34;;;;;;;;;;;19.50;70.70;;;;;;4478701;32;19974;-79
2022/10/14 03:04:00;;;;;;;;;;;19.50;70.70;;;;;;4478253;32;19965;-79
2022/10/14 03:06:27;;;;;;;;;;;19.50;70.70;;;;;;4478544;32;19985;-79
2022/10/14 03:08:52;;;;;;;;;;;19.50;70.60;;;;;;4478540;32;19977;-79
2022/10/14 03:11:18;;;;;;;;;;;19.50;70.70;;;;;;4478530;32;19996;-79
2022/10/14 03:13:44;;;;;;;;;;;19.50;70.60;;;;;;4478422;32;20059;-79
2022/10/14 03:16:10;;;;;;;;;;;19.50;70.60;;;;;;4478602;32;19985;-78
2022/10/14 03:18:35;;;;;;;;;;;19.40;70.50;;;;;;4478435;32;19969;-79
2022/10/14 03:21:01;;;;;;;;;;;19.40;70.50;;;;;;4464318;32;19970;-78
2022/10/14 03:23:27;;;;;;;;;;;19.40;70.50;;;;;;4463871;32;20147;-78
2022/10/14 03:25:53;;;;;;;;;;;19.40;70.50;;;;;;4478206;32;20056;-79
2022/10/14 03:28:18;;;;;;;;;;;19.40;70.50;;;;;;4478390;32;19974;-78
2022/10/14 03:30:44;;;;;;;;;;;19.40;70.50;;;;;;4464206;32;20276;-79
2022/10/14 03:33:11;;;;;;;;;;;19.40;70.50;;;;;;4478473;32;19977;-79
2022/10/14 03:35:36;;;;;;;;;;;19.40;70.40;;;;;;4478111;32;20319;-78
2022/10/14 03:38:02;;;;;;;;;;;19.40;70.50;;;;;;4478102;32;19957;-78
2022/10/14 03:40:29;;;;;;;;;;;19.40;70.50;;;;;;4477810;32;20170;-79
2022/10/14 03:42:59;;;;;;;;;;;19.40;70.50;;;;;;4478239;32;20357;-78
2022/10/14 03:45:25;;;;;;;;;;;19.40;70.50;;;;;;4477747;32;19986;-78
2022/10/14 03:47:51;;;;;;;;;;;19.40;70.50;;;;;;4478107;32;19984;-78
2022/10/14 03:50:17;;;;;;;;;;;19.30;70.50;;;;;;4477914;32;20036;-78
2022/10/14 03:52:42;;;;;;;;;;;19.30;70.50;;;;;;4477830;32;20284;-79
2022/10/14 03:55:08;;;;;;;;;;;19.30;70.40;;;;;;4477796;32;19977;-78
2022/10/14 03:57:34;;;;;;;;;;;19.40;70.50;;;;;;4477839;32;20377;-79
2022/10/14 03:59:59;;;;;;;;;;;19.30;70.50;;;;;;4477790;32;20376;-78
2022/10/14 04:02:25;;;;;;;;;;;19.30;70.40;;;;;;4477800;32;19962;-79
2022/10/14 04:04:51;;;;;;;;;;;19.30;70.40;;;;;;4477944;32;20358;-78
2022/10/14 04:07:16;;;;;;;;;;;19.30;70.40;;;;;;4463670;32;20080;-79
2022/10/14 04:09:42;;;;;;;;;;;19.30;70.40;;;;;;4477594;32;20092;-79
2022/10/14 04:12:08;;;;;;;;;;;19.30;70.40;;;;;;4477546;32;20106;-79
2022/10/14 04:14:33;;;;;;;;;;;19.30;70.40;;;;;;4477483;32;20139;-79
2022/10/14 04:16:59;;;;;;;;;;;19.30;70.40;;;;;;4477575;32;19973;-79
2022/10/14 04:19:25;;;;;;;;;;;19.30;70.40;;;;;;4477604;32;20395;-79
2022/10/14 04:21:50;;;;;;;;;;;19.30;70.40;;;;;;4463289;32;20469;-78
2022/10/14 04:24:16;;;;;;;;;;;19.30;70.40;;;;;;4477230;32;20032;-79
2022/10/14 04:26:42;;;;;;;;;;;19.30;70.40;;;;;;4477457;32;19966;-78
2022/10/14 04:29:07;;;;;;;;;;;19.30;70.40;;;;;;4463140;32;19978;-78
2022/10/14 04:31:33;;;;;;;;;;;19.30;70.40;;;;;;4477336;32;20095;-78
2022/10/14 04:34:00;;;;;;;;;;;19.20;70.30;;;;;;4477244;32;20377;-79
2022/10/14 04:36:26;;;;;;;;;;;19.30;70.30;;;;;;4477411;32;20099;-78
2022/10/14 04:38:51;;;;;;;;;;;19.30;70.30;;;;;;4477241;32;20092;-79
2022/10/14 04:41:17;;;;;;;;;;;19.30;70.30;;;;;;4477211;32;19982;-79
2022/10/14 04:43:43;;;;;;;;;;;19.30;70.30;;;;;;4477474;32;20439;-79
2022/10/14 04:46:08;;;;;;;;;;;19.30;70.20;;;;;;4477063;32;20315;-78
2022/10/14 04:48:34;;;;;;;;;;;19.30;70.30;;;;;;4462774;32;20335;-79
2022/10/14 04:51:00;;;;;;;;;;;19.20;70.20;;;;;;4477135;32;19974;-79
2022/10/14 04:53:25;;;;;;;;;;;19.20;70.20;;;;;;4476950;32;19970;-79
2022/10/14 04:55:51;;;;;;;;;;;19.20;70.20;;;;;;4476797;32;19970;-79
2022/10/14 04:58:17;;;;;;;;;;;19.20;70.20;;;;;;4476746;32;19996;-78
2022/10/14 05:00:43;;;;;;;;;;;19.20;70.20;;;;;;4477097;32;19970;-78
2022/10/14 05:03:08;;;;;;;;;;;19.20;70.20;;;;;;4477119;32;20339;-78
2022/10/14 05:05:34;;;;;;;;;;;19.20;70.20;;;;;;4477003;32;20021;-79
2022/10/14 05:08:00;;;;;;;;;;;19.20;70.20;;;;;;4476876;32;20317;-79
2022/10/14 05:10:25;;;;;;;;;;;19.20;70.10;;;;;;4476827;32;20104;-78
2022/10/14 05:12:51;;;;;;;;;;;19.20;70.10;;;;;;4462711;32;20413;-79
2022/10/14 05:15:17;;;;;;;;;;;19.20;70.20;;;;;;4476964;32;20100;-78
2022/10/14 05:17:43;;;;;;;;;;;19.20;70.20;;;;;;4476918;32;20311;-79
2022/10/14 05:20:10;;;;;;;;;;;19.20;70.20;;;;;;4477067;32;20079;-78
2022/10/14 05:22:35;;;;;;;;;;;19.10;70.00;;;;;;4476599;32;20007;-79
2022/10/14 05:25:02;;;;;;;;;;;19.20;70.10;;;;;;4476777;32;19981;-79
2022/10/14 05:27:28;;;;;;;;;;;19.20;70.10;;;;;;4476893;32;19993;-79
2022/10/14 05:29:53;;;;;;;;;;;19.20;70.10;;;;;;4476916;32;20024;-79
2022/10/14 05:32:19;;;;;;;;;;;19.10;70.10;;;;;;4476607;32;19982;-79
2022/10/14 05:34:46;;;;;;;;;;;19.10;70.00;;;;;;4476485;32;19986;-79
2022/10/14 05:37:11;;;;;;;;;;;19.10;70.00;;;;;;4476800;32;20283;-78
2022/10/14 05:39:37;;;;;;;;;;;19.10;70.00;;;;;;4462444;32;20108;-78
2022/10/14 05:42:03;;;;;;;;;;;19.10;70.00;;;;;;4476726;32;19972;-78
2022/10/14 05:44:28;;;;;;;;;;;19.10;70.00;;;;;;4476721;32;20088;-78
2022/10/14 05:46:54;;;;;;;;;;;19.10;70.00;;;;;;4476434;32;20100;-79
2022/10/14 05:49:20;;;;;;;;;;;19.10;70.00;;;;;;4476379;32;20005;-78
2022/10/14 05:51:45;;;;;;;;;;;19.10;70.00;;;;;;4476233;32;20001;-78
2022/10/14 05:54:11;;;;;;;;;;;19.10;70.00;;;;;;4476735;32;19970;-78
2022/10/14 05:56:37;;;;;;;;;;;19.10;70.00;;;;;;4476529;32;20324;-78
2022/10/14 05:59:03;;;;;;;;;;;19.10;70.00;;;;;;4476599;32;20108;-78
2022/10/14 06:01:28;;;;;;;;;;;19.10;70.00;;;;;;4476617;32;19980;-78
2022/10/14 06:03:54;;;;;;;;;;;19.10;70.00;;;;;;4462587;32;20021;-78
2022/10/14 06:06:20;;;;;;;;;;;19.10;70.00;;;;;;4476864;32;20400;-78
2022/10/14 06:08:46;;;;;;;;;;;19.10;70.00;;;;;;4478945;32;20300;-78
2022/10/14 06:11:12;;;;;;;;;;;19.00;70.00;;;;;;4479245;32;19961;-78
2022/10/14 06:13:38;;;;;;;;;;;19.10;70.00;;;;;;4479230;32;19982;-79
2022/10/14 06:16:04;;;;;;;;;;;19.00;69.90;;;;;;4478941;32;20354;-78
2022/10/14 06:18:30;;;;;;;;;;;19.00;69.90;;;;;;4479212;32;20470;-78
2022/10/14 06:20:56;;;;;;;;;;;19.00;69.90;;;;;;4478954;32;19989;-79
2022/10/14 06:23:22;;;;;;;;;;;19.00;69.90;;;;;;4460032;32;19962;-79
2022/10/14 06:25:47;;;;;;;;;;;19.00;69.90;;;;;;4449550;32;19959;-79
2022/10/14 06:28:13;;;;;;;;;;;19.00;69.90;;;;;;4463377;32;20195;-78
2022/10/14 06:30:39;;;;;;;;;;;19.00;69.90;;;;;;4463164;32;20459;-72
2022/10/14 06:33:04;;;;;;;;;;;19.00;69.90;;;;;;4463266;32;20052;-79
2022/10/14 06:35:31;;;;;;;;;;;19.00;69.90;;;;;;4449364;32;19982;-79
2022/10/14 06:37:56;;;;;;;;;;;19.00;69.60;;;;;;4449474;32;19981;-78
2022/10/14 06:40:22;;;;;;;;;;;19.00;69.10;;;;;;4449027;32;20392;-78
2022/10/14 06:42:48;;;;;;;;;;;18.90;68.50;;;;;;4448921;32;19966;-80
2022/10/14 06:45:13;;;;;;;;;;;19.00;68.30;;;;;;4463385;32;20025;-81
2022/10/14 06:47:39;;;;;;;;;;;19.00;68.50;;;;;;4463219;32;19977;-81
2022/10/14 06:50:05;;;;;;;;;;;19.00;68.90;;;;;;4449157;32;19970;-79
2022/10/14 06:52:31;;;;;;;;;;;18.90;69.30;;;;;;4462864;32;20023;-80
2022/10/14 06:54:56;;;;;;;;;;;18.90;69.40;;;;;;4463143;32;20047;-79
2022/10/14 06:57:22;;;;;;;;;;;18.90;69.40;;;;;;4462800;32;19974;-78
2022/10/14 06:59:48;;;;;;;;;;;18.90;69.60;;;;;;4462894;32;19975;-79
2022/10/14 07:02:13;;;;;;;;;;;18.90;69.90;;;;;;4449139;32;20024;-80
2022/10/14 07:04:39;;;;;;;;;;;19.00;70.10;;;;;;4463004;32;20092;-80
2022/10/14 07:07:05;;;;;;;;;;;19.00;69.80;;;;;;4462633;32;19970;-80
2022/10/14 07:09:31;;;;;;;;;;;19.20;69.70;;;;;;4462727;32;19970;-80
2022/10/14 07:11:57;;;;;;;;;;;19.30;69.50;;;;;;4462435;32;19986;-77
2022/10/14 07:14:22;;;;;;;;;;;19.30;69.20;;;;;;4462673;32;20092;-76
2022/10/14 07:16:48;;;;;;;;;;;19.50;69.90;;;;;;4462777;32;19966;-80
2022/10/14 07:19:14;;;;;;;;;;;19.60;68.70;;;;;;4448336;32;20194;-80
2022/10/14 07:21:41;;;;;;;;;;;19.70;68.30;;;;;;4462494;32;20021;-80
2022/10/14 07:24:07;;;;;;;;;;;19.90;68.10;;;;;;4454984;32;19986;-78
2022/10/14 07:26:33;;;;;;;;;;;20.00;67.80;;;;;;4462849;32;19982;-79
2022/10/14 07:28:59;;;;;;;;;;;20.10;67.60;;;;;;4462509;32;20323;-79
2022/10/14 07:31:25;;;;;;;;;;;20.20;67.30;;;;;;4462226;32;20393;-78
2022/10/14 07:33:51;;;;;;;;;;;20.20;67.10;;;;;;4462406;32;19958;-78
2022/10/14 07:36:18;;;;;;;;;;;20.30;66.90;;;;;;4462610;32;19992;-79
2022/10/14 07:38:44;;;;;;;;;;;20.40;66.70;;;;;;4462580;32;19974;-79
2022/10/14 07:41:15;;;;;;;;;;;20.50;66.60;;;;;;4462571;32;20081;-80
2022/10/14 07:43:42;;;;;;;;;;;20.50;66.40;;;;;;4461154;32;20025;-80
2022/10/14 07:46:07;;;;;;;;;;;20.70;66.20;;;;;;4461969;32;19974;-79
2022/10/14 07:48:34;;;;;;;;;;;20.70;66.10;;;;;;4462194;32;19984;-80
2022/10/14 07:50:59;;;;;;;;;;;20.70;66.00;;;;;;4462114;32;20376;-81
2022/10/14 07:53:25;;;;;;;;;;;20.80;66.00;;;;;;4462020;32;20041;-80
2022/10/14 07:55:51;;;;;;;;;;;20.80;65.80;;;;;;4460614;32;19970;-79
2022/10/14 07:58:21;;;;;;;;;;;20.90;65.90;;;;;;4462495;32;20040;-82
2022/10/14 08:00:47;;;;;;;;;;;20.90;65.80;;;;;;4462470;32;19974;-82
2022/10/14 08:03:13;;;;;;;;;;;20.90;65.90;;;;;;4461132;32;19982;-81
2022/10/14 08:05:39;;;;;;;;;;;21.00;65.80;;;;;;4461683;32;20387;-80
2022/10/14 08:08:05;;;;;;;;;;;21.00;65.80;;;;;;4461549;32;20006;-81
2022/10/14 08:10:31;;;;;;;;;;;21.10;65.80;;;;;;4461929;32;19974;-76
2022/10/14 08:12:57;;;;;;;;;;;21.10;65.80;;;;;;4461687;32;20312;-77
2022/10/14 08:15:27;;;;;;;;;;;21.10;65.80;;;;;;4473773;32;20029;-78
2022/10/14 08:17:53;;;;;;;;;;;21.10;65.80;;;;;;4460799;32;19970;-79
2022/10/14 08:20:19;;;;;;;;;;;21.20;65.80;;;;;;4461787;32;19978;-79
2022/10/14 08:22:45;;;;;;;;;;;21.20;66.60;;;;;;4461797;32;19981;-81
2022/10/14 08:25:11;;;;;;;;;;;21.20;65.70;;;;;;4477949;32;19970;-81
2022/10/14 08:27:36;;;;;;;;;;;21.20;65.70;;;;;;4477330;32;20319;-81
2022/10/14 08:30:02;;;;;;;;;;;21.20;65.60;;;;;;4476668;32;20020;-80
2022/10/14 08:32:28;;;;;;;;;;;21.20;65.60;;;;;;4477223;32;19984;-79
2022/10/14 08:34:54;;;;;;;;;;;21.30;65.60;;;;;;4450176;32;20005;-82
2022/10/14 08:37:21;;;;;;;;;;;21.30;65.50;;;;;;4462966;32;20502;-79
2022/10/14 08:39:47;;;;;;;;;;;21.40;65.40;;;;;;4476903;32;20000;-81
2022/10/14 08:42:25;;;;;;;;;;;21.40;65.40;;;;;;4477112;32;19974;-79
2022/10/14 08:44:54;;;;;;;;;;;21.50;65.40;;;;;;4477156;32;20304;-79
2022/10/14 08:47:21;;;;;;;;;;;21.50;65.30;;;;;;4477227;32;19985;-80
2022/10/14 08:49:50;;;;;;;;;;;21.50;65.30;;;;;;4476953;32;20055;-79
2022/10/14 08:52:29;;;;;;;;;;;21.50;65.20;;;;;;4477065;32;20162;-80
2022/10/14 08:54:58;;;;;;;;;;;21.50;65.20;;;;;;4476983;32;20119;-82
2022/10/14 08:57:26;;;;;;;;;;;21.50;65.20;;;;;;4476709;32;20091;-81
2022/10/14 08:59:51;;;;;;;;;;;21.60;65.30;;;;;;4476865;32;20108;-81
2022/10/14 09:02:20;;;;;;;;;;;21.60;65.20;;;;;;4476674;32;19966;-82
2022/10/14 09:04:46;;;;;;;;;;;21.60;65.20;;;;;;4476824;32;20016;-78
2022/10/14 09:07:15;;;;;;;;;;;21.70;65.20;;;;;;4476608;32;20091;-80
2022/10/14 09:09:42;;;;;;;;;;;21.70;65.20;;;;;;4476999;32;19989;-80
2022/10/14 09:12:13;;;;;;;;;;;21.70;65.10;;;;;;4476845;32;20051;-78
2022/10/14 09:14:41;;;;;;;;;;;21.70;65.10;;;;;;4476752;32;19986;-78
2022/10/14 09:17:13;;;;;;;;;;;21.70;65.10;;;;;;4462800;32;19985;-78
2022/10/14 09:19:46;;;;;;;;;;;21.70;65.10;;;;;;4462574;32;19984;-79
2022/10/14 09:22:13;;;;;;;;;;;21.80;65.20;;;;;;4476303;32;20397;-79
2022/10/14 09:24:39;;;;;;;;;;;21.80;65.10;;;;;;4476610;32;19974;-79
2022/10/14 09:27:09;;;;;;;;;;;21.80;65.10;;;;;;4476732;32;19982;-78
2022/10/14 09:29:41;;;;;;;;;;;21.80;65.10;;;;;;4476553;32;19982;-78
2022/10/14 09:32:30;;;;;;;;;;;21.80;65.00;;;;;;4463316;32;19970;-78
2022/10/14 09:34:56;;;;;;;;;;;21.90;64.90;;;;;;4476976;32;20174;-77
2022/10/14 09:37:26;;;;;;;;;;;21.90;64.90;;;;;;4476631;32;19982;-78
2022/10/14 09:39:53;;;;;;;;;;;21.90;64.80;;;;;;4462293;32;20115;-78
2022/10/14 09:42:20;;;;;;;;;;;21.90;64.80;;;;;;4479175;32;19982;-82
2022/10/14 09:45:02;;;;;;;;;;;21.90;64.80;;;;;;4479389;32;19974;-79
2022/10/14 09:47:28;;;;;;;;;;;21.90;64.80;;;;;;4479437;32;20063;-79
2022/10/14 09:49:55;;;;;;;;;;;21.90;64.90;;;;;;4479817;32;19978;-81
2022/10/14 09:52:21;;;;;;;;;;;21.90;64.90;;;;;;4479485;32;19985;-79
2022/10/14 09:54:57;;;;;;;;;;;22.00;65.00;;;;;;4479550;32;20420;-79
2022/10/14 09:57:24;;;;;;;;;;;22.00;64.90;;;;;;4479142;32;19970;-78
2022/10/14 09:59:52;;;;;;;;;;;22.00;64.80;;;;;;4479461;32;19989;-81
2022/10/14 10:02:23;;;;;;;;;;;22.00;64.80;;;;;;4479068;32;19970;-79
2022/10/14 10:04:49;;;;;;;;;;;22.10;64.90;;;;;;4479707;32;20396;-78
2022/10/14 10:07:25;;;;;;;;;;;22.10;64.80;;;;;;4479272;32;19966;-79
2022/10/14 10:09:54;;;;;;;;;;;22.10;64.80;;;;;;4479472;32;19973;-80
2022/10/14 10:12:27;;;;;;;;;;;22.10;64.80;;;;;;4479223;32;20055;-79
2022/10/14 10:14:57;;;;;;;;;;;22.10;65.70;;;;;;4465037;32;20324;-79
2022/10/14 10:17:23;;;;;;;;;;;22.10;64.80;;;;;;4479461;32;20079;-82
2022/10/14 10:19:52;;;;;;;;;;;22.10;64.80;;;;;;4479111;32;20070;-82
2022/10/14 10:22:21;;;;;;;;;;;22.20;64.80;;;;;;4465229;32;19986;-84
2022/10/14 10:24:51;;;;;;;;;;;22.20;64.80;;;;;;4478661;32;19992;-79
2022/10/14 10:27:23;;;;;;;;;;;22.20;64.80;;;;;;4479037;32;19970;-85
2022/10/14 10:29:49;;;;;;;;;;;22.20;64.80;;;;;;4478645;32;19970;-78
2022/10/14 10:32:22;;;;;;;;;;;22.20;64.80;;;;;;4478904;32;20358;-79
2022/10/14 10:34:52;;;;;;;;;;;22.20;64.90;;;;;;4479020;32;20331;-79
2022/10/14 10:37:22;;;;;;;;;;;22.10;65.00;;;;;;4464441;32;20166;-79
2022/10/14 10:40:09;;;;;;;;;;;22.10;65.10;;;;;;4479206;32;19986;-78
2022/10/14 10:42:47;;;;;;;;;;;22.00;65.20;;;;;;4478437;32;20028;-79
2022/10/14 10:45:19;;;;;;;;;;;22.00;65.30;;;;;;4464968;32;20523;-82
2022/10/14 10:47:45;;;;;;;;;;;21.90;65.60;;;;;;4464739;32;20029;-82
2022/10/14 10:50:13;;;;;;;;;;;21.80;65.70;;;;;;4478620;32;20461;-80
2022/10/14 10:53:02;;;;;;;;;;;21.80;65.90;;;;;;4478060;32;19980;-76
2022/10/14 10:55:28;;;;;;;;;;;21.70;66.10;;;;;;4478435;32;20031;-77
2022/10/14 10:58:04;;;;;;;;;;;21.60;66.30;;;;;;4478636;32;19965;-76
2022/10/14 11:00:33;;;;;;;;;;;21.60;66.50;;;;;;4464525;32;19994;-81
2022/10/14 11:03:18;;;;;;;;;;;21.50;66.70;;;;;;4478487;32;20387;-81
2022/10/14 11:05:51;;;;;;;;;;;21.40;66.80;;;;;;4478464;32;20028;-82
2022/10/14 11:13:55;;;;;;;;;;;21.30;67.30;;;;;;4478743;32;20102;-81
2022/10/14 11:16:37;;;;;;;;;;;21.20;67.40;;;;;;4478349;32;19970;-81
2022/10/14 11:19:09;;;;;;;;;;;21.10;67.50;;;;;;4478562;32;20111;-82
2022/10/14 11:21:34;;;;;;;;;;;21.10;67.60;;;;;;4477114;32;20009;-79
2022/10/14 11:24:03;;;;;;;;;;;21.10;68.50;;;;;;4477666;32;20043;-79
2022/10/14 11:26:40;;;;;;;;;;;21.10;67.90;;;;;;4478112;32;20427;-80
2022/10/14 11:29:05;;;;;;;;;;;21.00;68.00;;;;;;4478433;32;19982;-79
2022/10/14 11:31:38;;;;;;;;;;;21.00;68.20;;;;;;4478328;32;20357;-75
2022/10/14 11:34:13;;;;;;;;;;;21.00;68.30;;;;;;4478356;32;20319;-75
2022/10/14 11:36:41;;;;;;;;;;;20.90;68.30;;;;;;4477714;32;20063;-69
2022/10/14 11:39:19;;;;;;;;;;;20.90;68.30;;;;;;4477947;32;19988;-69
2022/10/14 11:41:46;;;;;;;;;;;20.80;68.40;;;;;;4477826;32;19990;-74
2022/10/14 11:44:12;;;;;;;;;;;20.80;68.40;;;;;;4477657;32;19965;-75
2022/10/14 11:46:41;;;;;;;;;;;20.80;68.50;;;;;;4477870;32;19974;-74
2022/10/14 11:49:39;;;;;;;;;;;20.80;68.60;;;;;;4463717;32;20454;-74
2022/10/14 11:52:06;;;;;;;;;;;20.70;68.60;;;;;;4459508;32;20445;-75
2022/10/14 11:54:32;;;;;;;;;;;20.70;68.70;;;;;;4477737;32;19986;-74
2022/10/14 11:57:06;;;;;;;;;;;20.70;68.70;;;;;;4477929;32;19961;-74
2022/10/14 11:59:35;;;;;;;;;;;20.70;68.70;;;;;;4477737;32;20063;-74
2022/10/14 12:02:21;;;;;;;;;;;20.60;68.70;;;;;;4477451;32;19974;-74
2022/10/14 12:05:19;;;;;;;;;;;20.60;68.80;;;;;;4462352;32;20033;-74
2022/10/14 12:08:03;;;;;;;;;;;20.60;68.90;;;;;;4459615;32;20018;-74
2022/10/14 12:10:55;;;;;;;;;;;20.60;69.00;;;;;;4477302;32;20296;-76
2022/10/14 12:13:26;;;;;;;;;;;20.60;69.00;;;;;;4464643;32;20375;-75
2022/10/14 12:15:52;;;;;;;;;;;20.50;69.00;;;;;;4478119;32;19988;-75
2022/10/14 12:18:18;;;;;;;;;;;20.50;68.90;;;;;;4477745;32;19974;-76
2022/10/14 12:21:03;;;;;;;;;;;20.50;69.10;;;;;;4477324;32;20283;-74
2022/10/14 12:23:32;;;;;;;;;;;20.50;69.00;;;;;;4477004;32;20035;-76
2022/10/14 12:26:14;;;;;;;;;;;20.50;69.10;;;;;;4477216;32;19981;-77
2022/10/14 12:28:41;;;;;;;;;;;20.50;69.40;;;;;;4476798;32;19974;-76
2022/10/14 12:31:34;;;;;;;;;;;20.50;69.40;;;;;;4477027;32;19988;-75
2022/10/14 12:34:23;;;;;;;;;;;20.40;69.60;;;;;;4475895;32;19981;-76
2022/10/14 12:36:49;;;;;;;;;;;20.50;69.60;;;;;;4459056;32;19978;-75
2022/10/14 12:39:18;;;;;;;;;;;20.40;69.60;;;;;;4476901;32;20012;-76
2022/10/14 12:41:50;;;;;;;;;;;20.40;69.70;;;;;;4477100;32;20103;-76
2022/10/14 12:44:18;;;;;;;;;;;20.40;69.80;;;;;;4463009;32;20392;-76
2022/10/14 12:46:44;;;;;;;;;;;20.40;69.80;;;;;;4476742;32;19982;-75
2022/10/14 12:49:30;;;;;;;;;;;20.40;69.80;;;;;;4476848;32;19981;-75
2022/10/14 12:51:57;;;;;;;;;;;20.40;69.80;;;;;;4476928;32;20017;-76
2022/10/14 12:54:23;;;;;;;;;;;20.30;69.80;;;;;;4477203;32;20368;-77
2022/10/14 12:57:12;;;;;;;;;;;20.30;69.80;;;;;;4477129;32;19978;-76
2022/10/14 12:59:38;;;;;;;;;;;20.40;69.90;;;;;;4458704;32;19982;-76
2022/10/14 13:02:16;;;;;;;;;;;20.30;69.90;;;;;;4477135;32;20004;-75
2022/10/14 13:04:52;;;;;;;;;;;20.40;70.10;;;;;;4477193;32;20048;-75
2022/10/14 13:07:24;;;;;;;;;;;20.30;70.00;;;;;;4476941;32;19970;-75
2022/10/14 13:09:56;;;;;;;;;;;20.30;70.10;;;;;;4476814;32;20331;-75
2022/10/14 13:12:22;;;;;;;;;;;20.30;70.20;;;;;;4476963;32;19989;-77
2022/10/14 13:14:53;;;;;;;;;;;20.30;70.30;;;;;;4476880;32;19978;-76
2022/10/14 13:17:34;;;;;;;;;;;20.30;70.30;;;;;;4479834;32;20403;-75
2022/10/14 13:20:03;;;;;;;;;;;20.30;70.30;;;;;;4480130;32;20059;-76
2022/10/14 13:22:28;;;;;;;;;;;20.30;70.30;;;;;;4479724;32;20339;-79
2022/10/14 13:25:14;;;;;;;;;;;20.30;70.20;;;;;;4479698;32;20396;-77
2022/10/14 13:27:40;;;;;;;;;;;20.30;70.10;;;;;;4479849;32;20040;-77
2022/10/14 13:30:24;;;;;;;;;;;20.20;70.10;;;;;;4479965;32;20368;-76
2022/10/14 13:33:09;;;;;;;;;;;20.30;70.10;;;;;;4479798;32;19984;-77
2022/10/14 13:35:43;;;;;;;;;;;20.30;70.20;;;;;;4479877;32;20391;-76
2022/10/14 13:38:14;;;;;;;;;;;20.20;70.20;;;;;;4479786;32;19973;-76
2022/10/14 13:40:44;;;;;;;;;;;20.20;70.20;;;;;;4479831;32;20021;-76
2022/10/14 13:43:31;;;;;;;;;;;20.20;70.30;;;;;;4479660;32;20431;-76
2022/10/14 13:46:03;;;;;;;;;;;20.20;70.30;;;;;;4479764;32;19985;-76
2022/10/14 13:48:33;;;;;;;;;;;20.20;70.40;;;;;;4479346;32;19969;-77
2022/10/14 13:51:11;;;;;;;;;;;20.20;70.40;;;;;;4479330;32;19977;-77
2022/10/14 13:53:47;;;;;;;;;;;20.20;70.50;;;;;;4479280;32;19973;-77
2022/10/14 13:56:19;;;;;;;;;;;20.20;70.50;;;;;;4479893;32;19989;-76
2022/10/14 13:58:45;;;;;;;;;;;20.20;70.50;;;;;;4479819;32;20006;-78
2022/10/14 14:01:17;;;;;;;;;;;20.20;70.50;;;;;;4479739;32;20292;-79
2022/10/14 14:03:43;;;;;;;;;;;20.20;70.70;;;;;;4465262;32;19996;-78
2022/10/14 14:06:11;;;;;;;;;;;20.20;70.70;;;;;;4479536;32;19974;-78
2022/10/14 14:08:43;;;;;;;;;;;20.20;70.70;;;;;;4479282;32;19994;-79
2022/10/14 14:11:15;;;;;;;;;;;20.20;70.70;;;;;;4478729;32;19982;-76
2022/10/14 14:13:48;;;;;;;;;;;20.20;70.70;;;;;;4479666;32;20399;-85
2022/10/14 14:16:19;;;;;;;;;;;20.20;70.70;;;;;;4479476;32;19988;-76
2022/10/14 14:18:48;;;;;;;;;;;20.10;70.80;;;;;;4479086;32;19981;-75
2022/10/14 14:21:14;;;;;;;;;;;20.10;70.70;;;;;;4478954;32;20036;-73
2022/10/14 14:23:50;;;;;;;;;;;20.10;70.60;;;;;;4478822;32;20006;-74
2022/10/14 14:26:15;;;;;;;;;;;20.10;70.60;;;;;;4478883;32;20010;-74
2022/10/14 14:28:43;;;;;;;;;;;20.20;70.80;;;;;;4478342;32;19958;-74
2022/10/14 14:31:13;;;;;;;;;;;20.10;70.80;;;;;;4479020;32;20383;-75